Time;durP1;ratioP1;P1;durP2;ratioP2;P2;SDS_P1;SDS_P2;PMS_P1;PMS_P2;Temp;Humidity;BMP_temperature;BMP_pressure;BME280_temperature;BME280_humidity;BME280_pressure;Samples;Min_cycle;Max_cycle;Signal;HPM_P1;HPM_P2
2021/08/03 00:02:26;;;;;;;3.23;2.80;;;;;;;18.44;65.65;99339.97;4967023;28;20228;-85
2021/08/03 00:04:57;;;;;;;3.53;3.23;;;;;;;18.39;65.91;99341.88;4974706;28;20239;-86
2021/08/03 00:07:26;;;;;;;4.43;3.13;;;;;;;18.33;65.71;99348.44;4943163;28;20228;-85
2021/08/03 00:09:55;;;;;;;3.27;2.97;;;;;;;18.31;66.34;99346.00;4974798;28;20280;-86
2021/08/03 00:12:24;;;;;;;3.93;3.00;;;;;;;18.27;66.63;99352.25;4974922;28;20597;-84
2021/08/03 00:14:53;;;;;;;3.10;2.80;;;;;;;18.22;66.67;99347.66;4959083;28;20706;-86
2021/08/03 00:17:25;;;;;;;3.10;2.90;;;;;;;18.16;66.80;99343.31;4943124;28;20318;-86
2021/08/03 00:19:53;;;;;;;3.40;2.83;;;;;;;18.12;67.10;99355.81;4958857;28;20547;-86
2021/08/03 00:22:23;;;;;;;4.30;2.93;;;;;;;18.05;67.51;99358.00;4958544;28;20228;-84
2021/08/03 00:24:51;;;;;;;3.20;2.90;;;;;;;17.91;67.03;99356.94;4974919;28;20228;-84
2021/08/03 00:27:18;;;;;;;5.03;2.90;;;;;;;17.94;67.28;99359.09;4975073;28;20259;-86
2021/08/03 00:29:45;;;;;;;4.57;3.00;;;;;;;17.86;67.49;99354.25;4974536;28;20360;-84
2021/08/03 00:32:12;;;;;;;3.53;2.93;;;;;;;17.89;67.71;99359.94;4974184;28;20228;-84
2021/08/03 00:34:39;;;;;;;3.10;2.80;;;;;;;17.93;67.41;99349.34;4942718;28;20229;-86
2021/08/03 00:37:07;;;;;;;3.57;2.93;;;;;;;17.90;67.51;99356.13;4974797;28;20694;-84
2021/08/03 00:39:35;;;;;;;3.87;3.10;;;;;;;17.84;67.66;99356.41;4974229;28;20229;-86
2021/08/03 00:42:06;;;;;;;4.60;2.87;;;;;;;17.81;67.75;99349.66;4973829;28;20232;-85
2021/08/03 00:44:44;;;;;;;3.57;2.93;;;;;;;17.84;68.31;99357.22;4958524;28;20235;-85
2021/08/03 00:47:17;;;;;;;4.13;3.10;;;;;;;17.84;68.48;99359.13;4974701;28;20263;-83
2021/08/03 00:49:47;;;;;;;3.00;2.80;;;;;;;17.81;68.69;99371.31;4954806;28;20296;-86
2021/08/03 00:52:15;;;;;;;3.27;2.97;;;;;;;17.80;68.70;99367.00;4964531;28;20311;-83
2021/08/03 00:54:44;;;;;;;3.20;3.00;;;;;;;17.85;68.11;99363.47;4942748;28;20319;-85
2021/08/03 00:57:14;;;;;;;4.30;3.20;;;;;;;17.80;68.20;99356.16;4974229;28;20587;-86
2021/08/03 00:59:42;;;;;;;3.73;3.30;;;;;;;17.86;67.93;99355.06;4990223;28;20521;-86
2021/08/03 01:02:11;;;;;;;3.37;3.13;;;;;;;17.81;68.32;99349.66;4989475;28;20232;-86
2021/08/03 01:04:39;;;;;;;3.83;3.30;;;;;;;17.89;68.33;99357.22;5007045;28;20651;-85
2021/08/03 01:07:36;;;;;;;3.20;2.90;;;;;;;17.89;68.34;99359.13;5009579;28;20247;-84
2021/08/03 01:10:06;;;;;;;3.53;3.23;;;;;;;17.90;68.21;99361.56;4976714;28;20326;-85
2021/08/03 01:12:52;;;;;;;4.00;3.10;;;;;;;17.84;68.31;99357.22;4961864;28;20635;-84
2021/08/03 01:15:29;;;;;;;4.73;3.00;;;;;;;17.87;68.22;99362.09;4978109;28;20232;-85
2021/08/03 01:18:20;;;;;;;3.40;3.10;;;;;;;17.86;68.36;99367.78;4962084;28;20258;-85
2021/08/03 01:21:23;;;;;;;3.83;3.30;;;;;;;17.86;68.37;99363.19;4993238;28;20264;-86
2021/08/03 01:24:20;;;;;;;3.30;3.00;;;;;;;17.89;68.46;99373.47;4961791;28;20583;-84
2021/08/03 01:27:24;;;;;;;3.57;3.20;;;;;;;17.90;68.84;99375.09;4977364;28;20690;-86
2021/08/03 01:29:51;;;;;;;3.53;3.23;;;;;;;17.87;69.01;99375.63;4979001;28;20240;-86
2021/08/03 01:32:33;;;;;;;3.30;2.90;;;;;;;17.81;68.54;99365.91;4960816;28;20319;-85
2021/08/03 01:35:02;;;;;;;3.20;3.00;;;;;;;17.85;69.12;99366.97;4961242;28;20232;-87
2021/08/03 01:37:31;;;;;;;3.40;3.10;;;;;;;17.87;68.93;99366.72;4961129;28;20232;-86
2021/08/03 01:40:04;;;;;;;3.27;2.97;;;;;;;17.91;68.74;99367.78;4961252;28;20220;-83
2021/08/03 01:42:31;;;;;;;5.00;3.10;;;;;;;17.90;68.52;99369.69;4969560;28;20232;-85
2021/08/03 01:45:00;;;;;;;3.10;2.73;;;;;;;17.96;68.13;99363.16;4977070;28;20650;-86
2021/08/03 01:47:28;;;;;;;3.37;2.87;;;;;;;18.02;67.64;99363.97;4961150;28;20236;-86
2021/08/03 01:49:56;;;;;;;2.90;2.70;;;;;;;18.08;67.56;99360.16;4977402;28;20315;-86
2021/08/03 01:52:23;;;;;;;2.80;2.60;;;;;;;18.09;67.43;99356.38;4976592;28;20240;-85
2021/08/03 01:54:56;;;;;;;3.10;2.90;;;;;;;18.17;67.70;99373.97;4977277;28;20238;-84
2021/08/03 01:57:30;;;;;;;4.00;3.10;;;;;;;18.13;67.68;99370.19;4970382;28;20231;-86
2021/08/03 02:00:00;;;;;;;3.10;2.80;;;;;;;18.13;67.51;99375.59;4977112;28;20232;-84
2021/08/03 02:02:30;;;;;;;3.03;2.73;;;;;;;18.15;67.59;99371.50;4976656;28;20240;-86
2021/08/03 02:05:07;;;;;;;4.07;2.67;;;;;;;18.18;67.26;99376.41;4991840;28;20236;-85
2021/08/03 02:07:36;;;;;;;3.70;3.10;;;;;;;18.18;67.46;99373.69;4976438;28;20263;-84
2021/08/03 02:10:04;;;;;;;3.63;2.93;;;;;;;18.16;67.43;99370.44;4976000;28;20278;-86
2021/08/03 02:12:33;;;;;;;3.73;2.80;;;;;;;18.23;67.46;99386.44;4976554;28;20239;-86
2021/08/03 02:15:00;;;;;;;3.13;2.80;;;;;;;18.23;67.24;99381.00;4944829;28;20306;-86
2021/08/03 02:17:28;;;;;;;4.43;2.70;;;;;;;18.21;67.33;99378.56;4992664;28;20232;-84
2021/08/03 02:20:12;;;;;;;3.33;3.13;;;;;;;18.22;66.95;99376.66;4973611;28;20705;-85
2021/08/03 02:22:44;;;;;;;3.33;3.03;;;;;;;18.26;67.42;99377.72;4960737;28;20643;-84
2021/08/03 02:25:19;;;;;;;2.83;2.63;;;;;;;18.23;67.51;99373.69;4975547;28;20318;-86
2021/08/03 02:27:46;;;;;;;4.13;2.90;;;;;;;18.22;67.37;99382.91;4944756;28;20234;-84
2021/08/03 02:30:14;;;;;;;3.00;2.80;;;;;;;18.25;67.55;99384.22;4975727;28;20286;-85
2021/08/03 02:32:55;;;;;;;3.20;2.90;;;;;;;18.24;67.36;99388.88;4947015;28;20619;-84
2021/08/03 02:35:24;;;;;;;4.33;3.03;;;;;;;18.21;67.33;99377.75;4960618;28;20259;-85
2021/08/03 02:37:59;;;;;;;3.43;2.80;;;;;;;18.12;67.83;99374.78;4957911;28;20294;-85
2021/08/03 02:40:27;;;;;;;3.30;2.80;;;;;;;18.05;67.88;99379.69;4956262;29;20237;-86
2021/08/03 02:43:07;;;;;;;2.87;2.67;;;;;;;18.11;68.06;99378.56;4955097;29;20517;-86
2021/08/03 02:45:34;;;;;;;4.23;2.73;;;;;;;18.05;68.53;99371.56;4956909;29;20229;-85
2021/08/03 02:48:11;;;;;;;4.83;3.10;;;;;;;18.01;68.60;99367.75;4956397;29;20237;-84
2021/08/03 02:50:41;;;;;;;3.60;3.30;;;;;;;18.10;68.74;99376.16;4923124;29;20285;-85
2021/08/03 02:53:15;;;;;;;4.67;3.33;;;;;;;18.00;68.74;99372.38;4938248;29;20237;-87
2021/08/03 02:55:49;;;;;;;3.03;2.83;;;;;;;18.03;68.82;99373.72;4972655;28;20237;-85
2021/08/03 02:58:24;;;;;;;3.63;3.17;;;;;;;18.07;68.71;99371.28;4940052;29;20236;-86
2021/08/03 03:00:51;;;;;;;4.20;3.23;;;;;;;18.05;69.07;99368.84;4925073;29;20232;-85
2021/08/03 03:03:23;;;;;;;4.20;3.10;;;;;;;18.08;69.19;99376.44;4925001;29;20233;-85
2021/08/03 03:05:58;;;;;;;3.20;2.90;;;;;;;18.02;68.92;99361.25;4925275;29;20239;-85
2021/08/03 03:08:27;;;;;;;4.37;3.00;;;;;;;18.06;69.21;99373.16;4955918;29;20228;-84
2021/08/03 03:10:57;;;;;;;2.97;2.77;;;;;;;18.06;69.41;99373.16;4924990;29;20574;-85
2021/08/03 03:13:49;;;;;;;3.07;2.73;;;;;;;18.21;69.10;99375.03;4956204;29;20241;-84
2021/08/03 03:16:18;;;;;;;5.50;3.20;;;;;;;18.24;68.88;99375.31;4921293;29;20232;-85
2021/08/03 03:18:47;;;;;;;7.90;3.40;;;;;;;18.20;68.97;99365.25;4924753;29;20544;-86
2021/08/03 03:21:18;;;;;;;3.27;2.97;;;;;;;18.22;68.67;99373.94;4956080;29;20266;-86
2021/08/03 03:23:49;;;;;;;4.43;3.10;;;;;;;18.27;68.88;99382.06;4940649;29;20228;-85
2021/08/03 03:26:17;;;;;;;3.90;3.30;;;;;;;18.23;68.50;99381.00;4923951;29;20244;-83
2021/08/03 03:28:45;;;;;;;3.23;2.93;;;;;;;18.27;68.87;99390.22;4939839;29;20252;-85
2021/08/03 03:31:12;;;;;;;3.37;3.07;;;;;;;18.25;68.34;99389.66;4939965;29;20326;-83
2021/08/03 03:33:41;;;;;;;3.47;2.97;;;;;;;18.29;68.37;99401.59;4972168;28;20253;-86
2021/08/03 03:36:09;;;;;;;4.33;3.13;;;;;;;18.26;68.61;99402.13;4924425;29;20314;-86
2021/08/03 03:38:38;;;;;;;3.20;2.90;;;;;;;18.17;68.56;99398.38;4924126;29;20224;-85
2021/08/03 03:41:06;;;;;;;3.63;3.10;;;;;;;18.20;68.47;99395.91;4955805;29;20315;-85
2021/08/03 03:43:34;;;;;;;3.27;2.97;;;;;;;18.28;68.39;99410.81;4955989;29;20546;-85
2021/08/03 03:46:15;;;;;;;3.30;3.10;;;;;;;18.31;67.78;99405.66;4923668;29;20671;-85
2021/08/03 03:48:49;;;;;;;3.30;3.00;;;;;;;18.24;68.44;99405.13;4955514;29;20241;-86
2021/08/03 03:51:18;;;;;;;3.57;2.70;;;;;;;18.34;68.41;99412.41;4955491;29;20240;-84
2021/08/03 03:53:48;;;;;;;2.97;2.77;;;;;;;18.24;68.44;99407.84;4924393;29;20243;-85
2021/08/03 03:56:18;;;;;;;3.40;3.10;;;;;;;18.30;68.26;99420.28;4939388;29;20280;-84
2021/08/03 03:58:51;;;;;;;4.50;2.90;;;;;;;18.35;68.15;99414.84;4924582;29;20233;-85
2021/08/03 04:01:24;;;;;;;3.30;3.00;;;;;;;18.65;67.69;99407.75;4955424;29;20719;-86
2021/08/03 04:03:54;;;;;;;2.90;2.70;;;;;;;19.06;66.22;99419.22;4939858;29;20640;-85
2021/08/03 04:06:21;;;;;;;3.47;2.80;;;;;;;19.67;64.57;99412.31;4923687;29;20566;-86
2021/08/03 04:08:49;;;;;;;3.23;2.67;;;;;;;19.90;61.44;99420.81;4955473;29;20671;-81
2021/08/03 04:11:16;;;;;;;2.70;2.50;;;;;;;20.31;61.37;99423.97;4971692;28;20253;-84
2021/08/03 04:13:50;;;;;;;3.47;2.87;;;;;;;20.93;59.26;99423.00;4941393;28;20236;-85
2021/08/03 04:16:19;;;;;;;2.70;2.50;;;;;;;20.92;59.38;99421.38;4923554;29;20229;-85
2021/08/03 04:18:46;;;;;;;6.03;2.70;;;;;;;20.85;58.80;99407.31;4923934;29;20237;-84
2021/08/03 04:21:13;;;;;;;2.97;2.60;;;;;;;20.89;58.89;99411.06;4955256;29;20237;-84
2021/08/03 04:23:40;;;;;;;2.87;2.37;;;;;;;21.01;59.02;99425.06;4940033;29;20231;-83
2021/08/03 04:26:06;;;;;;;3.90;2.63;;;;;;;21.02;58.74;99415.78;4939246;29;20225;-84
2021/08/03 04:28:33;;;;;;;4.27;2.67;;;;;;;21.16;58.62;99426.78;4924056;29;20239;-86
2021/08/03 04:31:00;;;;;;;3.27;2.60;;;;;;;21.27;57.94;99420.94;4955274;29;20264;-85
2021/08/03 04:33:28;;;;;;;2.67;2.30;;;;;;;21.43;57.79;99419.56;4955125;29;20543;-82
2021/08/03 04:35:55;;;;;;;2.47;2.27;;;;;;;21.50;57.01;99403.69;4939428;29;20264;-84
2021/08/03 04:38:22;;;;;;;3.07;2.40;;;;;;;21.56;57.37;99400.88;4923356;29;20253;-85
2021/08/03 04:40:48;;;;;;;2.57;2.37;;;;;;;21.50;57.31;99403.69;4942375;29;20283;-83
2021/08/03 04:43:15;;;;;;;2.80;2.47;;;;;;;21.64;57.42;99392.81;4927164;29;20312;-85
2021/08/03 04:45:42;;;;;;;3.60;2.53;;;;;;;21.86;56.31;99395.72;4927458;29;20228;-84
2021/08/03 04:48:08;;;;;;;4.63;2.40;;;;;;;22.06;56.20;99408.22;4942840;29;20259;-84
2021/08/03 04:50:35;;;;;;;2.63;2.43;;;;;;;22.19;55.86;99399.25;4927190;29;20282;-83
2021/08/03 04:53:02;;;;;;;2.90;2.70;;;;;;;22.24;55.30;99409.25;4958942;28;20280;-84
2021/08/03 04:55:29;;;;;;;3.97;3.00;;;;;;;22.62;54.07;99398.97;4942830;29;20230;-84
2021/08/03 04:57:56;;;;;;;3.17;2.93;;;;;;;22.98;52.79;99415.44;4927051;29;20249;-84
2021/08/03 05:00:23;;;;;;;2.80;2.60;;;;;;;23.03;52.64;99393.47;4958273;29;20233;-85
2021/08/03 05:02:49;;;;;;;4.13;2.80;;;;;;;23.26;51.91;99398.69;4943097;29;20952;-84
2021/08/03 05:05:16;;;;;;;3.53;3.20;;;;;;;23.37;51.76;99402.00;4958682;29;20533;-84
2021/08/03 05:07:58;;;;;;;3.53;2.93;;;;;;;23.42;51.78;99406.53;4926872;29;20240;-83
2021/08/03 05:10:26;;;;;;;4.20;3.43;;;;;;;23.82;50.61;99411.03;4957704;29;20320;-84
2021/08/03 05:12:53;;;;;;;4.33;3.90;;;;;;;23.82;50.32;99410.22;4959562;29;20236;-82
2021/08/03 05:15:20;;;;;;;3.90;3.60;;;;;;;23.60;50.77;99417.31;4926675;29;20231;-83
2021/08/03 05:17:47;;;;;;;3.93;3.63;;;;;;;23.38;50.73;99408.25;4926616;29;20325;-81
2021/08/03 05:20:14;;;;;;;4.80;4.40;;;;;;;23.37;50.57;99410.19;4926108;29;20299;-81
2021/08/03 05:22:41;;;;;;;5.03;3.77;;;;;;;23.37;51.04;99423.84;4958172;29;20278;-83
2021/08/03 05:25:11;;;;;;;6.43;4.70;;;;;;;23.30;51.12;99422.66;4926776;29;20242;-83
2021/08/03 05:27:39;;;;;;;5.00;4.57;;;;;;;23.25;51.05;99427.13;4942209;29;20326;-84
2021/08/03 05:30:06;;;;;;;8.23;4.93;;;;;;;23.34;50.66;99434.59;4941437;29;20324;-83
2021/08/03 05:32:33;;;;;;;5.73;4.33;;;;;;;23.23;51.06;99431.28;4926386;29;20362;-83
2021/08/03 05:35:00;;;;;;;3.93;3.60;;;;;;;23.31;50.91;99433.28;4942090;29;20239;-84
2021/08/03 05:37:27;;;;;;;4.00;3.50;;;;;;;23.51;50.67;99424.66;4974229;28;20610;-86
2021/08/03 05:39:55;;;;;;;5.80;3.60;;;;;;;23.76;50.29;99438.81;4942512;29;20230;-89
2021/08/03 05:42:23;;;;;;;4.53;3.77;;;;;;;23.78;50.42;99431.94;4926639;29;20247;-85
2021/08/03 05:44:50;;;;;;;3.83;3.53;;;;;;;24.25;49.29;99429.66;4958404;29;20280;-89
2021/08/03 05:47:17;;;;;;;6.60;3.23;;;;;;;24.57;49.15;99437.56;4942611;29;20260;-89
2021/08/03 05:49:43;;;;;;;3.50;3.23;;;;;;;24.60;49.40;99428.69;4942556;29;20241;-88
2021/08/03 05:52:10;;;;;;;4.30;3.60;;;;;;;24.91;48.71;99436.91;4941212;29;20249;-86
2021/08/03 05:54:37;;;;;;;4.17;3.07;;;;;;;24.88;47.38;99421.06;4942518;29;20317;-89
2021/08/03 05:57:04;;;;;;;4.83;3.00;;;;;;;25.05;47.11;99418.38;4942121;29;20288;-87
2021/08/03 05:59:30;;;;;;;3.37;2.93;;;;;;;25.15;47.72;99423.53;4926667;29;20247;-88
2021/08/03 06:01:58;;;;;;;3.53;2.87;;;;;;;25.13;47.32;99428.56;4942238;29;20295;-87
2021/08/03 06:04:25;;;;;;;3.40;2.83;;;;;;;25.13;47.23;99439.50;4926497;29;20241;-88
2021/08/03 06:06:54;;;;;;;3.40;2.90;;;;;;;25.35;47.38;99438.56;4942139;29;20284;-89
2021/08/03 06:09:24;;;;;;;3.33;3.03;;;;;;;25.36;46.79;99434.69;4926613;29;20262;-88
2021/08/03 06:11:51;;;;;;;3.03;2.72;;;;;;;25.54;46.22;99432.75;4958283;29;20223;-89
2021/08/03 06:14:26;;;;;;;3.27;2.50;;;;;;;25.65;46.08;99443.13;4926409;29;20244;-88
2021/08/03 06:16:53;;;;;;;3.57;2.80;;;;;;;26.03;45.55;99440.50;4959147;29;20632;-88
2021/08/03 06:19:23;;;;;;;3.05;2.58;;;;;;;26.53;44.12;99453.63;4974196;28;20292;-89
2021/08/03 06:21:50;;;;;;;2.85;2.65;;;;;;;26.63;43.57;99450.53;4957379;29;20310;-87
2021/08/03 06:24:16;;;;;;;2.97;2.70;;;;;;;26.71;43.64;99431.25;4925911;29;20538;-87
2021/08/03 06:26:45;;;;;;;5.57;3.08;;;;;;;26.88;43.33;99435.88;4926253;29;20262;-86
2021/08/03 06:29:12;;;;;;;4.90;2.70;;;;;;;26.94;43.60;99442.00;4926122;29;20586;-87
2021/08/03 06:31:40;;;;;;;2.95;2.70;;;;;;;26.85;44.00;99441.19;4926151;29;20713;-87
2021/08/03 06:34:07;;;;;;;4.30;2.70;;;;;;;26.86;44.14;99437.34;4956840;29;20675;-88
2021/08/03 06:36:34;;;;;;;4.32;2.53;;;;;;;26.91;43.79;99434.41;4926045;29;20261;-87
2021/08/03 06:39:01;;;;;;;3.47;2.63;;;;;;;27.05;43.92;99418.47;4925678;29;20248;-88
2021/08/03 06:41:35;;;;;;;3.40;2.90;;;;;;;27.24;42.71;99435.34;4925873;29;20252;-86
2021/08/03 06:44:21;;;;;;;3.05;2.55;;;;;;;27.39;43.21;99431.19;4956900;29;20280;-87
2021/08/03 06:46:52;;;;;;;5.25;2.95;;;;;;;27.67;42.24;99424.00;4941577;29;20289;-85
2021/08/03 06:49:19;;;;;;;6.50;2.65;;;;;;;28.23;41.23;99433.50;4957418;29;20540;-87
2021/08/03 06:51:47;;;;;;;2.70;2.50;;;;;;;28.68;40.30;99419.69;4910063;29;20229;-88
2021/08/03 06:54:15;;;;;;;4.68;2.70;;;;;;;29.02;38.58;99412.91;4956864;29;20242;-87
2021/08/03 06:56:50;;;;;;;3.05;2.72;;;;;;;29.24;38.43;99417.13;4957064;29;20314;-87
2021/08/03 06:59:19;;;;;;;2.72;2.50;;;;;;;29.54;37.68;99409.34;4940975;29;20298;-86
2021/08/03 07:01:47;;;;;;;4.05;2.45;;;;;;;29.92;36.89;99429.00;4956835;29;20229;-87
2021/08/03 07:04:24;;;;;;;2.92;2.50;;;;;;;29.62;35.72;99424.97;4923987;29;20227;-86
2021/08/03 07:06:56;;;;;;;2.95;2.35;;;;;;;29.92;35.35;99429.00;4925576;29;20639;-87
2021/08/03 07:09:27;;;;;;;2.70;2.47;;;;;;;29.94;35.32;99421.19;4972943;28;20226;-87
2021/08/03 07:11:54;;;;;;;3.80;2.25;;;;;;;30.04;35.26;99431.72;4956987;29;20232;-88
2021/08/03 07:14:24;;;;;;;2.42;2.20;;;;;;;30.21;34.65;99424.25;4940477;29;20569;-85
2021/08/03 07:16:55;;;;;;;3.17;2.50;;;;;;;30.39;34.96;99418.03;4940554;29;20648;-85
2021/08/03 07:19:23;;;;;;;3.53;2.30;;;;;;;30.39;34.53;99422.75;4957077;28;20708;-86
2021/08/03 07:21:51;;;;;;;2.40;2.17;;;;;;;30.03;35.60;99418.25;4925365;29;20323;-86
2021/08/03 07:24:18;;;;;;;3.00;2.22;;;;;;;29.75;35.20;99412.72;4956124;29;20242;-87
2021/08/03 07:26:45;;;;;;;3.45;2.25;;;;;;;29.47;36.04;99404.44;4941059;29;20266;-84
2021/08/03 07:29:12;;;;;;;4.80;2.08;;;;;;;29.22;35.56;99419.41;4940628;29;20315;-84
2021/08/03 07:31:41;;;;;;;2.20;2.00;;;;;;;29.06;36.01;99413.03;4924794;29;20256;-86
2021/08/03 07:34:10;;;;;;;2.47;2.28;;;;;;;28.96;36.13;99408.78;4924649;29;20236;-85
2021/08/03 07:36:37;;;;;;;2.58;2.13;;;;;;;29.00;37.33;99423.47;4940404;29;20231;-84
2021/08/03 07:39:06;;;;;;;2.35;2.15;;;;;;;28.89;37.17;99414.06;4957436;28;20283;-86
2021/08/03 07:41:34;;;;;;;2.40;2.20;;;;;;;28.53;37.62;99401.06;4940350;29;20567;-86
2021/08/03 07:44:01;;;;;;;4.32;2.20;;;;;;;28.46;37.52;99398.88;4940290;28;20235;-86
2021/08/03 07:46:29;;;;;;;2.60;2.10;;;;;;;28.35;36.77;99391.41;4940137;29;20234;-84
2021/08/03 07:48:57;;;;;;;2.25;2.05;;;;;;;28.24;37.01;99393.00;4972199;28;20539;-85
2021/08/03 07:51:25;;;;;;;2.45;2.13;;;;;;;28.48;37.55;99406.00;4956141;29;20228;-86
2021/08/03 07:53:52;;;;;;;3.40;2.10;;;;;;;28.26;38.20;99399.78;4970532;28;20240;-85
2021/08/03 07:56:19;;;;;;;2.42;2.28;;;;;;;28.40;37.29;99416.00;4938743;29;20297;-87
2021/08/03 07:58:46;;;;;;;1.85;1.75;;;;;;;28.39;37.04;99403.34;4954786;29;20244;-86
2021/08/03 08:01:13;;;;;;;2.35;2.13;;;;;;;28.16;37.71;99402.97;4955696;28;20233;-84
2021/08/03 08:03:40;;;;;;;2.75;2.20;;;;;;;28.34;38.19;99414.59;4971671;28;20229;-86
2021/08/03 08:06:07;;;;;;;3.95;2.45;;;;;;;28.52;38.76;99404.16;4971374;28;20307;-86
2021/08/03 08:08:34;;;;;;;2.72;2.00;;;;;;;28.62;37.46;99409.22;4955454;29;20236;-86
2021/08/03 08:11:01;;;;;;;2.80;2.30;;;;;;;28.69;37.10;99417.72;4955575;29;20243;-86
2021/08/03 08:13:28;;;;;;;2.40;2.20;;;;;;;28.65;37.54;99406.56;4955167;28;20229;-87
2021/08/03 08:15:55;;;;;;;2.35;2.05;;;;;;;28.51;36.71;99400.59;4990522;28;20277;-85
2021/08/03 08:18:22;;;;;;;1.90;1.80;;;;;;;28.45;36.90;99405.56;4975037;28;20239;-86
2021/08/03 08:20:49;;;;;;;2.17;2.00;;;;;;;28.49;37.37;99402.91;4975323;28;20310;-86
2021/08/03 08:23:16;;;;;;;1.98;1.70;;;;;;;28.29;36.00;99404.59;4959410;28;20257;-86
2021/08/03 08:25:43;;;;;;;2.03;1.70;;;;;;;28.64;36.17;99404.97;4960364;28;20236;-86
2021/08/03 08:28:10;;;;;;;2.08;1.88;;;;;;;29.05;36.35;99414.97;4946557;28;20755;-86
2021/08/03 08:30:38;;;;;;;1.98;1.80;;;;;;;29.49;35.77;99407.63;4953218;28;20226;-86
2021/08/03 08:33:06;;;;;;;3.60;2.20;;;;;;;30.03;34.75;99408.00;4984757;28;20248;-86
2021/08/03 08:35:37;;;;;;;2.17;1.98;;;;;;;30.11;34.07;99396.00;4979467;28;20236;-87
2021/08/03 08:38:04;;;;;;;1.90;1.80;;;;;;;30.35;32.42;99406.06;4966261;28;20242;-85
2021/08/03 08:40:32;;;;;;;2.42;1.80;;;;;;;30.34;32.32;99393.41;4982009;28;20235;-86
2021/08/03 08:42:58;;;;;;;1.85;1.60;;;;;;;29.99;32.64;99382.25;4978938;28;20235;-86
2021/08/03 08:45:25;;;;;;;1.90;1.80;;;;;;;30.09;32.35;99389.22;4950640;28;20574;-87
2021/08/03 08:47:52;;;;;;;1.70;1.60;;;;;;;29.97;33.00;99397.56;4997834;28;20227;-86
2021/08/03 08:50:21;;;;;;;2.05;1.60;;;;;;;29.83;33.52;99386.09;4997092;28;20231;-85
2021/08/03 08:52:56;;;;;;;3.15;1.50;;;;;;;29.65;33.45;99380.91;4977771;28;20251;-87
2021/08/03 08:55:24;;;;;;;1.70;1.60;;;;;;;29.30;33.02;99372.41;4981101;28;20234;-86
2021/08/03 08:57:51;;;;;;;2.13;1.60;;;;;;;28.96;33.94;99385.91;4961657;28;20248;-85
2021/08/03 09:00:20;;;;;;;2.03;1.80;;;;;;;28.66;34.56;99388.09;4978995;28;20667;-84
2021/08/03 09:02:51;;;;;;;2.38;2.00;;;;;;;28.65;35.19;99387.28;4981249;28;20320;-85
2021/08/03 09:05:37;;;;;;;2.90;2.40;;;;;;;28.37;37.65;99389.91;4980108;28;20241;-85
2021/08/03 09:08:05;;;;;;;4.30;2.08;;;;;;;28.38;37.13;99376.94;4996215;28;20234;-86
2021/08/03 09:10:39;;;;;;;2.40;2.17;;;;;;;28.42;36.98;99377.84;5009992;28;20231;-85
2021/08/03 09:13:20;;;;;;;2.22;2.00;;;;;;;28.42;37.08;99380.63;4971690;28;20285;-86
2021/08/03 09:16:00;;;;;;;2.53;1.80;;;;;;;28.20;37.63;99372.78;4987145;28;20226;-85
2021/08/03 09:18:38;;;;;;;2.75;1.70;;;;;;;28.24;35.35;99366.25;4963631;28;20305;-84
2021/08/03 09:21:05;;;;;;;2.72;1.88;;;;;;;28.25;35.91;99367.06;4961717;28;20262;-86
2021/08/03 09:23:51;;;;;;;2.38;2.17;;;;;;;28.36;36.00;99355.25;4945416;28;20240;-86
2021/08/03 09:26:38;;;;;;;3.97;2.08;;;;;;;28.41;36.93;99370.75;4959851;28;20369;-85
2021/08/03 09:29:08;;;;;;;2.30;2.10;;;;;;;28.39;37.24;99373.84;4977055;28;20254;-87
2021/08/03 09:31:36;;;;;;;2.80;1.75;;;;;;;28.61;34.94;99380.03;4978420;28;20669;-85
2021/08/03 09:34:13;;;;;;;2.05;1.70;;;;;;;28.56;35.17;99372.81;4951349;28;20224;-84
2021/08/03 09:36:57;;;;;;;2.10;1.88;;;;;;;28.74;33.06;99367.91;4985134;28;20243;-84
2021/08/03 09:39:39;;;;;;;3.08;1.88;;;;;;;28.88;34.45;99379.38;4951368;28;20229;-84
2021/08/03 09:42:13;;;;;;;2.38;1.90;;;;;;;28.84;34.15;99370.97;5000988;28;20274;-85
2021/08/03 09:44:48;;;;;;;1.80;1.70;;;;;;;28.99;35.25;99374.19;4949766;28;20298;-84
2021/08/03 09:47:15;;;;;;;3.25;1.90;;;;;;;29.14;36.08;99365.19;4984625;28;20225;-86
2021/08/03 09:49:46;;;;;;;2.03;1.83;;;;;;;29.21;35.72;99360.69;4980089;28;20580;-85
2021/08/03 09:52:24;;;;;;;1.85;1.60;;;;;;;29.20;34.98;99361.84;4977495;28;20243;-85
2021/08/03 09:55:07;;;;;;;2.08;1.83;;;;;;;29.14;35.55;99360.47;4960664;28;20639;-85
2021/08/03 09:57:34;;;;;;;3.05;1.92;;;;;;;29.22;35.38;99361.47;5005793;28;20640;-86
2021/08/03 10:00:01;;;;;;;2.00;1.90;;;;;;;29.17;35.54;99357.00;4996407;28;20232;-86
2021/08/03 10:02:28;;;;;;;1.65;1.55;;;;;;;29.00;34.81;99362.81;4972735;28;20235;-86
2021/08/03 10:04:56;;;;;;;1.70;1.60;;;;;;;29.04;34.83;99357.41;4996572;28;20258;-86
2021/08/03 10:07:23;;;;;;;2.50;1.95;;;;;;;28.99;36.38;99352.94;5012463;28;20251;-85
2021/08/03 10:09:50;;;;;;;1.90;1.70;;;;;;;29.10;35.36;99353.25;4996209;28;20561;-85
2021/08/03 10:12:17;;;;;;;1.73;1.63;;;;;;;29.23;35.17;99343.78;4995731;28;20661;-86
2021/08/03 10:14:47;;;;;;;2.13;1.85;;;;;;;29.24;34.27;99340.69;5012595;28;20235;-86
2021/08/03 10:17:15;;;;;;;2.15;1.60;;;;;;;29.31;35.12;99329.88;5028985;28;20247;-85
2021/08/03 10:19:42;;;;;;;2.65;1.60;;;;;;;29.38;35.49;99334.78;5012783;28;20278;-86
2021/08/03 10:22:15;;;;;;;1.65;1.55;;;;;;;29.64;34.52;99335.13;4993778;28;20647;-85
2021/08/03 10:24:52;;;;;;;3.22;1.83;;;;;;;29.56;34.53;99322.28;4961146;28;20255;-86
2021/08/03 10:27:19;;;;;;;2.55;1.58;;;;;;;29.19;35.52;99318.84;5011411;28;20225;-86
2021/08/03 10:29:48;;;;;;;1.98;1.80;;;;;;;29.52;36.18;99315.88;4977002;28;20228;-87
2021/08/03 10:32:38;;;;;;;1.70;1.60;;;;;;;29.87;33.35;99315.19;4994546;28;20230;-87
2021/08/03 10:35:15;;;;;;;2.35;1.42;;;;;;;30.31;32.20;99308.47;4996169;28;20274;-86
2021/08/03 10:38:01;;;;;;;1.70;1.60;;;;;;;30.37;32.02;99297.94;4995931;28;20653;-86
2021/08/03 10:40:44;;;;;;;1.75;1.60;;;;;;;30.26;32.66;99308.75;4972562;28;20238;-86
2021/08/03 10:43:35;;;;;;;2.95;2.40;;;;;;;30.39;33.13;99293.66;4980288;28;20231;-86
2021/08/03 10:46:08;;;;;;;2.08;1.88;;;;;;;30.26;33.95;99300.44;4959241;28;20228;-85
2021/08/03 10:48:42;;;;;;;1.70;1.52;;;;;;;30.42;31.63;99292.94;4975471;28;20233;-85
2021/08/03 10:51:18;;;;;;;1.75;1.50;;;;;;;30.50;31.40;99285.66;4977288;28;20233;-87
2021/08/03 10:54:01;;;;;;;3.22;1.70;;;;;;;30.47;32.54;99281.63;4975801;28;20262;-86
2021/08/03 10:56:52;;;;;;;2.30;1.85;;;;;;;30.54;31.83;99270.75;4963578;28;20235;-86
2021/08/03 10:59:33;;;;;;;2.30;1.85;;;;;;;30.67;32.92;99267.84;4995605;28;20223;-87
2021/08/03 11:02:05;;;;;;;1.80;1.70;;;;;;;30.42;32.21;99268.06;4976023;28;20229;-85
2021/08/03 11:04:42;;;;;;;1.67;1.58;;;;;;;30.72;30.68;99275.88;4966077;28;20265;-86
2021/08/03 11:07:27;;;;;;;2.22;1.90;;;;;;;30.61;31.36;99267.31;4973806;28;20223;-87
2021/08/03 11:10:01;;;;;;;1.95;1.63;;;;;;;30.67;32.10;99259.56;4977002;28;20239;-87
2021/08/03 11:12:48;;;;;;;1.88;1.67;;;;;;;30.42;31.98;99262.53;4956601;28;20229;-86
2021/08/03 11:15:21;;;;;;;1.70;1.60;;;;;;;30.42;31.47;99256.22;4963841;28;20231;-84
2021/08/03 11:18:00;;;;;;;2.63;1.80;;;;;;;30.52;32.37;99250.13;4965672;28;20227;-85
2021/08/03 11:20:33;;;;;;;3.05;1.67;;;;;;;30.57;32.31;99250.66;4958769;28;20656;-86
2021/08/03 11:23:14;;;;;;;1.60;1.50;;;;;;;30.78;29.13;99232.94;4962361;28;20519;-86
2021/08/03 11:25:43;;;;;;;3.03;1.50;;;;;;;30.56;30.43;99226.16;4966205;28;20228;-87
2021/08/03 11:28:21;;;;;;;2.33;1.80;;;;;;;30.88;30.50;99235.94;4998374;28;20462;-86
2021/08/03 11:30:49;;;;;;;1.67;1.40;;;;;;;31.24;29.94;99231.13;4965696;28;20271;-87
2021/08/03 11:33:18;;;;;;;2.05;1.50;;;;;;;31.29;29.92;99231.63;4981491;28;20223;-87
2021/08/03 11:35:45;;;;;;;1.70;1.60;;;;;;;31.48;30.32;99220.53;4984240;28;20628;-86
2021/08/03 11:38:14;;;;;;;3.13;1.52;;;;;;;31.82;30.31;99234.59;4982027;28;20232;-85
2021/08/03 11:40:42;;;;;;;1.50;1.40;;;;;;;31.85;29.75;99228.31;4964745;28;20624;-85
2021/08/03 11:43:09;;;;;;;1.80;1.70;;;;;;;32.29;29.38;99217.53;4982100;28;20228;-86
2021/08/03 11:45:39;;;;;;;1.65;1.52;;;;;;;32.36;29.69;99200.22;4961521;28;20225;-86
2021/08/03 11:48:20;;;;;;;5.18;1.83;;;;;;;32.41;30.03;99208.19;4979292;28;20308;-86
2021/08/03 11:50:46;;;;;;;3.92;1.83;;;;;;;32.32;31.19;99189.06;4966862;28;20266;-86
2021/08/03 11:53:14;;;;;;;2.80;1.80;;;;;;;32.34;30.71;99195.03;4998009;28;20538;-86